createdAt,value
2023-05-22T00:00:39.440Z,0.00
2023-05-22T00:01:39.079Z,0.00
2023-05-22T00:02:39.271Z,0.00
2023-05-22T00:03:39.013Z,0.00
2023-05-22T00:04:39.055Z,0.00
2023-05-22T00:05:39.097Z,0.00
2023-05-22T00:06:38.960Z,0.00
2023-05-22T00:07:38.957Z,0.00
2023-05-22T00:08:38.951Z,0.00
2023-05-22T00:09:38.945Z,0.00
2023-05-22T00:10:39.192Z,0.00
2023-05-22T00:11:38.904Z,0.00
2023-05-22T00:12:38.899Z,0.00
2023-05-22T00:13:38.923Z,0.00
2023-05-22T00:14:38.871Z,0.00
2023-05-22T00:15:38.853Z,0.00
2023-05-22T00:16:38.956Z,0.00
2023-05-22T00:17:38.874Z,0.00
2023-05-22T00:18:38.848Z,0.00
2023-05-22T00:19:38.896Z,0.00
2023-05-22T00:20:39.513Z,0.00
2023-05-22T00:21:38.800Z,0.00
2023-05-22T00:22:38.797Z,0.00
2023-05-22T00:23:38.769Z,0.00
2023-05-22T00:24:38.774Z,0.00
2023-05-22T00:25:38.783Z,0.00
2023-05-22T00:26:38.757Z,0.00
2023-05-22T00:27:38.727Z,0.00
2023-05-22T00:28:38.723Z,0.00
2023-05-22T00:29:38.711Z,0.00
2023-05-22T00:30:39.015Z,0.00
2023-05-22T00:31:38.708Z,0.00
2023-05-22T00:32:38.889Z,0.00
2023-05-22T00:33:38.673Z,0.00
2023-05-22T00:34:38.709Z,0.00
2023-05-22T00:35:38.643Z,0.00
2023-05-22T00:36:38.650Z,0.00
2023-05-22T00:37:38.642Z,0.00
2023-05-22T00:38:38.624Z,0.00
2023-05-22T00:39:38.600Z,0.00
2023-05-22T00:40:38.945Z,0.00
2023-05-22T00:41:38.670Z,0.00
2023-05-22T00:42:38.578Z,0.00
2023-05-22T00:43:38.586Z,0.00
2023-05-22T00:44:38.556Z,0.00
2023-05-22T00:45:38.536Z,0.00
2023-05-22T00:46:38.667Z,0.00
2023-05-22T00:47:38.521Z,0.00
2023-05-22T00:48:38.549Z,0.00
2023-05-22T00:49:38.517Z,0.00
2023-05-22T00:50:38.797Z,0.00
2023-05-22T00:51:38.474Z,0.00
2023-05-22T00:52:38.476Z,0.00
2023-05-22T00:53:38.464Z,0.00
2023-05-22T00:54:38.460Z,0.00
2023-05-22T00:55:38.435Z,0.00
2023-05-22T00:56:38.428Z,0.00
2023-05-22T00:57:38.423Z,0.00
2023-05-22T00:58:38.414Z,0.00
2023-05-22T00:59:38.396Z,0.00
2023-05-22T01:00:38.658Z,0.00
2023-05-22T01:01:38.462Z,0.00
2023-05-22T01:02:38.432Z,0.00
2023-05-22T01:03:38.457Z,0.00
2023-05-22T01:04:38.370Z,0.00
2023-05-22T01:05:38.326Z,0.00
2023-05-22T01:06:38.341Z,0.00
2023-05-22T01:07:38.305Z,0.00
2023-05-22T01:08:38.312Z,0.00
2023-05-22T01:09:38.290Z,0.00
2023-05-22T01:10:38.464Z,0.00
2023-05-22T01:11:38.263Z,0.00
2023-05-22T01:12:38.298Z,0.00
2023-05-22T01:13:38.254Z,0.00
2023-05-22T01:14:38.234Z,0.00
2023-05-22T01:15:38.234Z,0.00
2023-05-22T01:16:38.247Z,0.00
2023-05-22T01:17:38.254Z,0.00
2023-05-22T01:18:38.202Z,0.00
2023-05-22T01:19:38.181Z,0.00
2023-05-22T01:20:38.463Z,0.00
2023-05-22T01:21:38.158Z,0.00
2023-05-22T01:22:38.170Z,0.00
2023-05-22T01:23:38.193Z,0.00
2023-05-22T01:24:38.150Z,0.00
2023-05-22T01:25:38.115Z,0.00
2023-05-22T01:26:38.107Z,0.00
2023-05-22T01:27:38.090Z,0.00
2023-05-22T01:28:38.123Z,0.00
2023-05-22T01:29:38.071Z,0.00
2023-05-22T01:30:38.290Z,0.00
2023-05-22T01:31:38.061Z,0.00
2023-05-22T01:32:38.127Z,0.00
2023-05-22T01:33:38.084Z,0.00
2023-05-22T01:34:38.021Z,0.00
2023-05-22T01:35:38.010Z,0.00
2023-05-22T01:36:38.039Z,0.00
2023-05-22T01:37:37.985Z,0.00
2023-05-22T01:38:37.980Z,0.00
2023-05-22T01:39:37.968Z,0.00
2023-05-22T01:40:38.334Z,0.00
2023-05-22T01:41:37.954Z,0.00
2023-05-22T01:42:37.973Z,0.00
2023-05-22T01:43:37.927Z,0.00
2023-05-22T01:44:37.917Z,0.00
2023-05-22T01:45:37.926Z,0.00
2023-05-22T01:46:37.902Z,0.00
2023-05-22T01:47:37.985Z,0.00
2023-05-22T01:48:37.888Z,0.00
2023-05-22T01:49:37.860Z,0.00
2023-05-22T01:50:38.149Z,0.00
2023-05-22T01:51:37.852Z,0.00
2023-05-22T01:52:37.851Z,0.00
2023-05-22T01:53:37.816Z,0.00
2023-05-22T01:54:37.820Z,0.00
2023-05-22T01:55:37.795Z,0.00
2023-05-22T01:56:37.791Z,0.00
2023-05-22T01:57:37.786Z,0.00
2023-05-22T01:58:37.766Z,0.00
2023-05-22T01:59:37.774Z,0.00
2023-05-22T02:00:37.888Z,0.00
2023-05-22T02:01:37.777Z,0.00
2023-05-22T02:02:37.826Z,0.00
2023-05-22T02:03:37.819Z,0.00
2023-05-22T02:04:37.705Z,0.00
2023-05-22T02:05:37.689Z,0.00
2023-05-22T02:06:37.693Z,0.00
2023-05-22T02:07:37.670Z,0.00
2023-05-22T02:08:37.769Z,0.00
2023-05-22T02:09:37.662Z,0.00
2023-05-22T02:10:37.991Z,0.00
2023-05-22T02:11:37.628Z,0.00
2023-05-22T02:12:37.656Z,0.00
2023-05-22T02:13:37.616Z,0.00
2023-05-22T02:14:37.598Z,0.00
2023-05-22T02:15:37.661Z,0.00
2023-05-22T02:16:37.574Z,0.00
2023-05-22T02:17:37.616Z,0.00
2023-05-22T02:18:37.566Z,0.00
2023-05-22T02:19:37.573Z,0.00
2023-05-22T02:20:37.666Z,0.00
2023-05-22T02:21:37.520Z,0.00
2023-05-22T02:22:37.515Z,0.00
2023-05-22T02:23:37.499Z,0.00
2023-05-22T02:24:37.522Z,0.00
2023-05-22T02:25:37.487Z,0.00
2023-05-22T02:26:37.469Z,0.00
2023-05-22T02:27:37.458Z,0.00
2023-05-22T02:28:37.446Z,0.00
2023-05-22T02:29:37.451Z,0.00
2023-05-22T02:30:37.544Z,0.00
2023-05-22T02:31:37.473Z,0.00
2023-05-22T02:32:37.432Z,0.00
2023-05-22T02:33:37.411Z,0.00
2023-05-22T02:34:37.386Z,0.00
2023-05-22T02:35:37.381Z,0.00
2023-05-22T02:36:37.410Z,0.00
2023-05-22T02:37:37.359Z,0.00
2023-05-22T02:38:37.374Z,0.00
2023-05-22T02:39:37.346Z,0.00
2023-05-22T02:40:37.566Z,0.00
2023-05-22T02:41:37.318Z,0.00
2023-05-22T02:42:37.310Z,0.00
2023-05-22T02:43:37.309Z,0.00
2023-05-22T02:44:37.279Z,0.00
2023-05-22T02:45:37.262Z,0.00
2023-05-22T02:46:37.289Z,0.00
2023-05-22T02:47:37.280Z,0.00
2023-05-22T02:48:37.248Z,0.00
2023-05-22T02:49:37.224Z,0.00
2023-05-22T02:50:37.364Z,0.00
2023-05-22T02:51:37.205Z,0.00
2023-05-22T02:52:37.290Z,0.00
2023-05-22T02:53:37.193Z,0.00
2023-05-22T02:54:37.188Z,0.00
2023-05-22T02:55:37.158Z,0.00
2023-05-22T02:56:37.170Z,0.00
2023-05-22T02:57:37.147Z,0.00
2023-05-22T02:58:37.124Z,0.00
2023-05-22T02:59:37.127Z,0.00
2023-05-22T03:00:37.162Z,0.00
2023-05-22T03:01:37.156Z,0.00
2023-05-22T03:02:37.312Z,0.00
2023-05-22T03:03:37.166Z,0.00
2023-05-22T03:04:37.064Z,4.00
2023-05-22T03:05:37.073Z,4.00
2023-05-22T03:06:37.056Z,4.00
2023-05-22T03:07:37.038Z,4.00
2023-05-22T03:08:37.028Z,4.00
2023-05-22T03:09:37.009Z,4.00
2023-05-22T03:10:37.222Z,8.00
2023-05-22T03:11:37.004Z,4.00
2023-05-22T03:12:37.004Z,8.00
2023-05-22T03:13:36.974Z,8.00
2023-05-22T03:14:36.972Z,8.00
2023-05-22T03:15:36.969Z,12.00
2023-05-22T03:16:37.026Z,12.00
2023-05-22T03:17:36.974Z,16.00
2023-05-22T03:18:36.930Z,20.00
2023-05-22T03:19:36.903Z,24.00
2023-05-22T03:20:37.183Z,28.00
2023-05-22T03:21:36.886Z,36.00
2023-05-22T03:22:36.892Z,40.00
2023-05-22T03:23:36.876Z,48.00
2023-05-22T03:24:36.862Z,56.00
2023-05-22T03:25:36.841Z,64.00
2023-05-22T03:26:36.838Z,72.00
2023-05-22T03:27:36.818Z,84.00
2023-05-22T03:28:36.875Z,92.00
2023-05-22T03:29:36.834Z,108.00
2023-05-22T03:30:36.995Z,116.00
2023-05-22T03:31:36.778Z,132.00
2023-05-22T03:32:36.774Z,148.00
2023-05-22T03:33:36.827Z,164.00
2023-05-22T03:34:36.754Z,188.00
2023-05-22T03:35:36.757Z,208.00
2023-05-22T03:36:36.732Z,232.00
2023-05-22T03:37:36.726Z,252.00
2023-05-22T03:38:36.709Z,280.00
2023-05-22T03:39:36.698Z,308.00
2023-05-22T03:40:36.895Z,340.00
2023-05-22T03:41:36.690Z,372.00
2023-05-22T03:42:36.688Z,408.00
2023-05-22T03:43:36.665Z,444.00
2023-05-22T03:44:36.661Z,484.00
2023-05-22T03:45:36.729Z,524.00
2023-05-22T03:46:36.634Z,572.00
2023-05-22T03:47:36.689Z,620.00
2023-05-22T03:48:36.649Z,672.00
2023-05-22T03:49:36.631Z,724.00
2023-05-22T03:50:36.651Z,784.00
2023-05-22T03:51:36.575Z,840.00
2023-05-22T03:52:36.576Z,896.00
2023-05-22T03:53:36.562Z,956.00
2023-05-22T03:54:36.550Z,1020.00
2023-05-22T03:55:36.527Z,1084.00
2023-05-22T03:56:36.520Z,1156.00
2023-05-22T03:57:36.520Z,1224.00
2023-05-22T03:58:36.494Z,1296.00
2023-05-22T03:59:36.502Z,1380.00
2023-05-22T04:00:36.799Z,1460.00
2023-05-22T04:01:36.461Z,1544.00
2023-05-22T04:02:36.540Z,1636.00
2023-05-22T04:03:36.525Z,1724.00
2023-05-22T04:04:36.478Z,1808.00
2023-05-22T04:05:36.566Z,1900.00
2023-05-22T04:06:36.452Z,1992.00
2023-05-22T04:07:36.400Z,2084.00
2023-05-22T04:08:36.390Z,2176.00
2023-05-22T04:09:36.376Z,2264.00
2023-05-22T04:10:36.414Z,2352.00
2023-05-22T04:11:36.373Z,2440.00
2023-05-22T04:12:36.379Z,2536.00
2023-05-22T04:13:36.339Z,2636.00
2023-05-22T04:14:36.356Z,2724.00
2023-05-22T04:15:36.321Z,2820.00
2023-05-22T04:16:36.324Z,2924.00
2023-05-22T04:17:36.342Z,3028.00
2023-05-22T04:18:36.302Z,3132.00
2023-05-22T04:19:36.313Z,3248.00
2023-05-22T04:20:36.274Z,3356.00
2023-05-22T04:21:36.247Z,3460.00
2023-05-22T04:22:36.253Z,3564.00
2023-05-22T04:23:36.255Z,3676.00
2023-05-22T04:24:36.229Z,3780.00
2023-05-22T04:25:36.208Z,3888.00
2023-05-22T04:26:36.225Z,3992.00
2023-05-22T04:27:36.192Z,4096.00
2023-05-22T04:28:36.181Z,4208.00
2023-05-22T04:29:36.180Z,4328.00
2023-05-22T04:30:36.152Z,4452.00
2023-05-22T04:31:36.223Z,4576.00
2023-05-22T04:32:36.170Z,4704.00
2023-05-22T04:33:36.134Z,4912.00
2023-05-22T04:34:36.113Z,6188.00
2023-05-22T04:35:36.134Z,7892.00
2023-05-22T04:36:36.091Z,8840.00
2023-05-22T04:37:36.081Z,9376.00
2023-05-22T04:38:36.067Z,9604.00
2023-05-22T04:39:36.062Z,9832.00
2023-05-22T04:40:36.050Z,9788.00
2023-05-22T04:41:36.067Z,10108.00
2023-05-22T04:42:36.037Z,11076.00
2023-05-22T04:43:36.065Z,10928.00
2023-05-22T04:44:36.018Z,11188.00
2023-05-22T04:45:35.995Z,11960.00
2023-05-22T04:46:36.226Z,11492.00
2023-05-22T04:47:36.021Z,11300.00
2023-05-22T04:48:36.014Z,11272.00
2023-05-22T04:49:35.956Z,12288.00
2023-05-22T04:50:35.948Z,13248.00
2023-05-22T04:51:35.932Z,14016.00
2023-05-22T04:52:35.917Z,15104.00
2023-05-22T04:53:35.936Z,15552.00
2023-05-22T04:54:35.907Z,15040.00
2023-05-22T04:55:35.888Z,15008.00
2023-05-22T04:56:37.135Z,15200.00
2023-05-22T04:57:35.902Z,16288.00
2023-05-22T04:58:35.851Z,16032.00
2023-05-22T04:59:35.868Z,15584.00
2023-05-22T05:00:35.847Z,17248.00
2023-05-22T05:01:35.906Z,16256.00
2023-05-22T05:02:35.816Z,15616.00
2023-05-22T05:03:35.844Z,15232.00
2023-05-22T05:04:35.898Z,14784.00
2023-05-22T05:05:35.827Z,15520.00
2023-05-22T05:06:35.760Z,15776.00
2023-05-22T05:07:35.755Z,15616.00
2023-05-22T05:08:35.740Z,16160.00
2023-05-22T05:09:35.741Z,16544.00
2023-05-22T05:10:35.720Z,16672.00
2023-05-22T05:11:35.725Z,17120.00
2023-05-22T05:12:35.706Z,17664.00
2023-05-22T05:13:35.686Z,18112.00
2023-05-22T05:14:35.683Z,18720.00
2023-05-22T05:15:35.668Z,19424.00
2023-05-22T05:16:35.682Z,19840.00
2023-05-22T05:17:35.735Z,20192.00
2023-05-22T05:18:35.635Z,20672.00
2023-05-22T05:19:37.153Z,21088.00
2023-05-22T05:20:35.645Z,21440.00
2023-05-22T05:21:35.611Z,22272.00
2023-05-22T05:22:35.597Z,22720.00
2023-05-22T05:23:35.588Z,23200.00
2023-05-22T05:24:35.569Z,24288.00
2023-05-22T05:25:35.561Z,24736.00
2023-05-22T05:26:35.544Z,24544.00
2023-05-22T05:27:35.548Z,24928.00
2023-05-22T05:28:35.541Z,25728.00
2023-05-22T05:29:35.566Z,26912.00
2023-05-22T05:30:35.516Z,27552.00
2023-05-22T05:31:35.520Z,28640.00
2023-05-22T05:32:35.512Z,29824.00
2023-05-22T05:33:35.468Z,30208.00
2023-05-22T05:34:35.475Z,29856.00
2023-05-22T05:35:35.474Z,29792.00
2023-05-22T05:36:35.580Z,29888.00
2023-05-22T05:37:35.429Z,30592.00
2023-05-22T05:38:35.411Z,30080.00
2023-05-22T05:39:35.415Z,30048.00
2023-05-22T05:40:35.405Z,31520.00
2023-05-22T05:41:35.401Z,32192.00
2023-05-22T05:42:35.383Z,32576.00
2023-05-22T05:43:35.375Z,34112.00
2023-05-22T05:44:35.361Z,34432.00
2023-05-22T05:45:35.341Z,33696.00
2023-05-22T05:46:35.403Z,34816.00
2023-05-22T05:47:35.376Z,35872.00
2023-05-22T05:48:35.323Z,36256.00
2023-05-22T05:49:35.965Z,36608.00
2023-05-22T05:50:35.285Z,37920.00
2023-05-22T05:51:35.275Z,37888.00
2023-05-22T05:52:35.291Z,36480.00
2023-05-22T05:53:35.268Z,36832.00
2023-05-22T05:54:35.252Z,37408.00
2023-05-22T05:55:35.236Z,37920.00
2023-05-22T05:56:35.226Z,39744.00
2023-05-22T05:57:35.218Z,39808.00
2023-05-22T05:58:35.205Z,41056.00
2023-05-22T05:59:35.213Z,41760.00
2023-05-22T06:00:35.176Z,40832.00
2023-05-22T06:01:35.179Z,41760.00
2023-05-22T06:02:35.253Z,41856.00
2023-05-22T06:03:35.295Z,42272.00
2023-05-22T06:04:35.127Z,42944.00
2023-05-22T06:05:35.235Z,43072.00
2023-05-22T06:06:35.114Z,42304.00
2023-05-22T06:07:35.102Z,41312.00
2023-05-22T06:08:35.200Z,43744.00
2023-05-22T06:09:35.079Z,45952.00
2023-05-22T06:10:35.071Z,46944.00
2023-05-22T06:11:35.110Z,48672.00
2023-05-22T06:12:35.057Z,50752.00
2023-05-22T06:13:35.037Z,47840.00
2023-05-22T06:14:35.021Z,44576.00
2023-05-22T06:15:35.016Z,44096.00
2023-05-22T06:16:35.122Z,44672.00
2023-05-22T06:17:35.092Z,46688.00
2023-05-22T06:18:34.982Z,51232.00
2023-05-22T06:19:35.090Z,56096.00
2023-05-22T06:20:34.966Z,58816.00
2023-05-22T06:21:34.959Z,58560.00
2023-05-22T06:22:34.938Z,57504.00
2023-05-22T06:23:34.939Z,56864.00
2023-05-22T06:24:34.938Z,58848.00
2023-05-22T06:25:34.913Z,60736.00
2023-05-22T06:26:34.908Z,63712.00
2023-05-22T06:27:34.895Z,65920.00
2023-05-22T06:28:34.870Z,64928.00
2023-05-22T06:29:34.879Z,62496.00
2023-05-22T06:30:40.106Z,61408.00
2023-05-22T06:31:35.877Z,65536.00
2023-05-22T06:32:34.965Z,67616.00
2023-05-22T06:33:34.913Z,67072.00
2023-05-22T06:34:34.807Z,67904.00
2023-05-22T06:35:34.845Z,67648.00
2023-05-22T06:36:34.820Z,67744.00
2023-05-22T06:37:34.788Z,66176.00
2023-05-22T06:38:34.765Z,67488.00
2023-05-22T06:39:34.762Z,68672.00
2023-05-22T06:40:34.845Z,73216.00
2023-05-22T06:41:34.765Z,71168.00
2023-05-22T06:42:34.720Z,70304.00
2023-05-22T06:43:34.717Z,75072.00
2023-05-22T06:44:34.731Z,76800.00
2023-05-22T06:45:34.735Z,72640.00
2023-05-22T06:46:34.706Z,69504.00
2023-05-22T06:47:34.724Z,72864.00
2023-05-22T06:48:34.666Z,78400.00
2023-05-22T06:49:34.650Z,80128.00
2023-05-22T06:50:34.660Z,80288.00
2023-05-22T06:51:34.656Z,76704.00
2023-05-22T06:52:34.615Z,73632.00
2023-05-22T06:53:34.633Z,68288.00
2023-05-22T06:54:34.591Z,74432.00
2023-05-22T06:55:34.596Z,83200.00
2023-05-22T06:56:34.700Z,88352.00
2023-05-22T06:57:34.566Z,89376.00
2023-05-22T06:58:34.561Z,84096.00
2023-05-22T06:59:34.560Z,64352.00
2023-05-22T07:00:34.528Z,54784.00
2023-05-22T07:01:34.575Z,41664.00
2023-05-22T07:02:34.560Z,37472.00
2023-05-22T07:03:34.504Z,34208.00
2023-05-22T07:04:34.500Z,56160.00
2023-05-22T07:05:34.600Z,35648.00
2023-05-22T07:06:34.462Z,33760.00
2023-05-22T07:07:34.458Z,32256.00
2023-05-22T07:08:34.438Z,35616.00
2023-05-22T07:09:34.441Z,34880.00
2023-05-22T07:10:34.427Z,37120.00
2023-05-22T07:11:34.426Z,33056.00
2023-05-22T07:12:34.445Z,34656.00
2023-05-22T07:13:34.398Z,36064.00
2023-05-22T07:14:34.385Z,37792.00
2023-05-22T07:15:34.364Z,40256.00
2023-05-22T07:16:34.400Z,35200.00
2023-05-22T07:17:34.390Z,33376.00
2023-05-22T07:18:34.332Z,33664.00
2023-05-22T07:19:34.419Z,35936.00
2023-05-22T07:20:34.310Z,38912.00
2023-05-22T07:21:34.302Z,38464.00
2023-05-22T07:22:34.292Z,38976.00
2023-05-22T07:23:34.294Z,40448.00
2023-05-22T07:24:34.268Z,46656.00
2023-05-22T07:25:34.274Z,80864.00
2023-05-22T07:26:34.287Z,44224.00
2023-05-22T07:27:34.239Z,39744.00
2023-05-22T07:28:34.396Z,40480.00
2023-05-22T07:29:34.228Z,40704.00
2023-05-22T07:30:34.203Z,35712.00
2023-05-22T07:31:34.318Z,35392.00
2023-05-22T07:32:34.232Z,39872.00
2023-05-22T07:33:34.174Z,54368.00
2023-05-22T07:34:34.176Z,43584.00
2023-05-22T07:35:34.177Z,43552.00
2023-05-22T07:36:34.168Z,41216.00
2023-05-22T07:37:34.129Z,51040.00
2023-05-22T07:38:34.128Z,116160.00
2023-05-22T07:39:34.109Z,57888.00
2023-05-22T07:40:34.094Z,51424.00
2023-05-22T07:41:34.101Z,92672.00
2023-05-22T07:42:34.081Z,83584.00
2023-05-22T07:43:34.062Z,51552.00
2023-05-22T07:44:34.213Z,52064.00
2023-05-22T07:45:34.052Z,65920.00
2023-05-22T07:46:34.097Z,62272.00
2023-05-22T07:47:34.151Z,46336.00
2023-05-22T07:48:34.010Z,97184.00
2023-05-22T07:49:33.994Z,106976.00
2023-05-22T07:50:33.984Z,68512.00
2023-05-22T07:51:33.988Z,101248.00
2023-05-22T07:52:33.964Z,93984.00
2023-05-22T07:53:33.985Z,109312.00
2023-05-22T07:54:33.944Z,114144.00
2023-05-22T07:55:33.935Z,101120.00
2023-05-22T07:56:33.922Z,110240.00
2023-05-22T07:57:33.935Z,111776.00
2023-05-22T07:58:33.893Z,103168.00
2023-05-22T07:59:33.922Z,104768.00
2023-05-22T08:00:33.965Z,107712.00
2023-05-22T08:01:33.867Z,106144.00
2023-05-22T08:02:33.998Z,104224.00
2023-05-22T08:03:34.078Z,106656.00
2023-05-22T08:04:33.957Z,99552.00
2023-05-22T08:05:33.873Z,102112.00
2023-05-22T08:06:33.828Z,106080.00
2023-05-22T08:07:33.800Z,103200.00
2023-05-22T08:08:33.799Z,104768.00
2023-05-22T08:09:33.776Z,115296.00
2023-05-22T08:10:52.044Z,100448.00
2023-05-22T08:11:34.774Z,104512.00
2023-05-22T08:12:33.774Z,105280.00
2023-05-22T08:13:33.740Z,101312.00
2023-05-22T08:14:33.728Z,102048.00
2023-05-22T08:15:33.707Z,101760.00
2023-05-22T08:16:33.795Z,101824.00
2023-05-22T08:17:33.759Z,102944.00
2023-05-22T08:18:33.683Z,103808.00
2023-05-22T08:19:33.775Z,111808.00
2023-05-22T08:20:33.831Z,122016.00
2023-05-22T08:21:33.646Z,117984.00
2023-05-22T08:22:33.633Z,107552.00
2023-05-22T08:23:33.632Z,94496.00
2023-05-22T08:24:33.625Z,115232.00
2023-05-22T08:25:33.601Z,115712.00
2023-05-22T08:26:33.606Z,117984.00
2023-05-22T08:27:33.577Z,113632.00
2023-05-22T08:28:33.563Z,118592.00
2023-05-22T08:29:33.572Z,124352.00
2023-05-22T08:30:33.565Z,84192.00
2023-05-22T08:31:33.567Z,92256.00
2023-05-22T08:32:33.747Z,92064.00
2023-05-22T08:33:33.512Z,116352.00
2023-05-22T08:34:33.499Z,115648.00
2023-05-22T08:35:33.514Z,110752.00
2023-05-22T08:36:33.490Z,115424.00
2023-05-22T08:37:33.477Z,121152.00
2023-05-22T08:38:33.462Z,124672.00
2023-05-22T08:39:33.448Z,123168.00
2023-05-22T08:40:33.449Z,113792.00
2023-05-22T08:41:33.460Z,124608.00
2023-05-22T08:42:33.420Z,129568.00
2023-05-22T08:43:33.420Z,129632.00
2023-05-22T08:44:33.391Z,133184.00
2023-05-22T08:45:33.382Z,129632.00
2023-05-22T08:46:33.400Z,125792.00
2023-05-22T08:47:33.405Z,114688.00
2023-05-22T08:48:33.540Z,110400.00
2023-05-22T08:49:33.371Z,114464.00
2023-05-22T08:50:33.330Z,104960.00
2023-05-22T08:51:33.347Z,110208.00
2023-05-22T08:52:33.314Z,119360.00
2023-05-22T08:53:33.308Z,115328.00
2023-05-22T08:54:33.292Z,120288.00
2023-05-22T08:55:33.275Z,122432.00
2023-05-22T08:56:35.213Z,115456.00
2023-05-22T08:57:33.277Z,111072.00
2023-05-22T08:58:33.249Z,114560.00
2023-05-22T08:59:33.250Z,117248.00
2023-05-22T09:00:33.232Z,127744.00
2023-05-22T09:01:33.256Z,137344.00
2023-05-22T09:02:33.251Z,134080.00
2023-05-22T09:03:33.410Z,136576.00
2023-05-22T09:04:33.203Z,139296.00
2023-05-22T09:05:33.179Z,128480.00
2023-05-22T09:06:33.159Z,122816.00
2023-05-22T09:07:33.146Z,128640.00
2023-05-22T09:08:33.155Z,127776.00
2023-05-22T09:09:33.125Z,130560.00
2023-05-22T09:10:33.120Z,130880.00
2023-05-22T09:11:33.113Z,136192.00
2023-05-22T09:12:33.092Z,143872.00
2023-05-22T09:13:33.086Z,134272.00
2023-05-22T09:14:33.086Z,103904.00
2023-05-22T09:15:33.062Z,130624.00
2023-05-22T09:16:33.088Z,135296.00
2023-05-22T09:17:33.097Z,130368.00
2023-05-22T09:18:33.059Z,132672.00
2023-05-22T09:19:33.138Z,120160.00
2023-05-22T09:20:33.287Z,80640.00
2023-05-22T09:21:32.999Z,61120.00
2023-05-22T09:22:32.991Z,84576.00
2023-05-22T09:23:32.984Z,96928.00
2023-05-22T09:24:32.976Z,66720.00
2023-05-22T09:25:32.953Z,52320.00
2023-05-22T09:26:32.968Z,47104.00
2023-05-22T09:27:32.946Z,47040.00
2023-05-22T09:28:32.924Z,61728.00
2023-05-22T09:29:32.932Z,73600.00
2023-05-22T09:30:32.911Z,51584.00
2023-05-22T09:31:32.906Z,59872.00
2023-05-22T09:32:32.908Z,53216.00
2023-05-22T09:33:32.870Z,56032.00
2023-05-22T09:34:32.875Z,86464.00
2023-05-22T09:35:32.858Z,62944.00
2023-05-22T09:36:32.979Z,58496.00
2023-05-22T09:37:32.869Z,56960.00
2023-05-22T09:38:32.817Z,55904.00
2023-05-22T09:39:32.801Z,53632.00
2023-05-22T09:40:32.795Z,51328.00
2023-05-22T09:41:32.796Z,49984.00
2023-05-22T09:42:32.789Z,49088.00
2023-05-22T09:43:32.771Z,49504.00
2023-05-22T09:44:32.763Z,48608.00
2023-05-22T09:45:32.739Z,47072.00
2023-05-22T09:46:32.756Z,45728.00
2023-05-22T09:47:32.792Z,45120.00
2023-05-22T09:48:32.723Z,46592.00
2023-05-22T09:49:32.696Z,50624.00
2023-05-22T09:50:32.702Z,59968.00
2023-05-22T09:51:32.674Z,75904.00
2023-05-22T09:52:32.688Z,59872.00
2023-05-22T09:53:32.659Z,131072.00
2023-05-22T09:54:32.747Z,65376.00
2023-05-22T09:55:32.628Z,78560.00
2023-05-22T09:56:39.096Z,157152.00
2023-05-22T09:57:33.608Z,96288.00
2023-05-22T09:58:32.599Z,153728.00
2023-05-22T09:59:32.597Z,103776.00
2023-05-22T10:00:32.592Z,144288.00
2023-05-22T10:01:32.658Z,148928.00
2023-05-22T10:02:32.619Z,142592.00
2023-05-22T10:03:32.558Z,149280.00
2023-05-22T10:04:32.597Z,143296.00
2023-05-22T10:05:32.544Z,151200.00
2023-05-22T10:06:32.513Z,147264.00
2023-05-22T10:07:32.503Z,143232.00
2023-05-22T10:08:32.529Z,134848.00
2023-05-22T10:09:32.483Z,153856.00
2023-05-22T10:10:32.482Z,48928.00
2023-05-22T10:11:32.467Z,34048.00
2023-05-22T10:12:32.448Z,29920.00
2023-05-22T10:13:32.436Z,28672.00
2023-05-22T10:14:32.428Z,28640.00
2023-05-22T10:15:32.431Z,29504.00
2023-05-22T10:16:32.484Z,30688.00
2023-05-22T10:17:32.407Z,32576.00
2023-05-22T10:18:32.389Z,37280.00
2023-05-22T10:19:32.409Z,38336.00
2023-05-22T10:20:32.387Z,47840.00
2023-05-22T10:21:32.348Z,109248.00
2023-05-22T10:22:32.341Z,148288.00
2023-05-22T10:23:32.336Z,88000.00
2023-05-22T10:24:32.467Z,66528.00
2023-05-22T10:25:32.321Z,117536.00
2023-05-22T10:26:32.300Z,134208.00
2023-05-22T10:27:32.300Z,62560.00
2023-05-22T10:28:32.276Z,40832.00
2023-05-22T10:29:32.277Z,40480.00
2023-05-22T10:30:32.291Z,41216.00
2023-05-22T10:31:32.239Z,45952.00
2023-05-22T10:32:32.264Z,48096.00
2023-05-22T10:33:32.260Z,43680.00
2023-05-22T10:34:32.213Z,47552.00
2023-05-22T10:35:32.210Z,87936.00
2023-05-22T10:36:32.189Z,118720.00
2023-05-22T10:37:32.178Z,154784.00
2023-05-22T10:38:32.168Z,164160.00
2023-05-22T10:39:32.163Z,163808.00
2023-05-22T10:40:32.667Z,116704.00
2023-05-22T10:41:32.146Z,36736.00
2023-05-22T10:42:32.138Z,35904.00
2023-05-22T10:43:32.120Z,36256.00
2023-05-22T10:44:32.104Z,101696.00
2023-05-22T10:45:32.177Z,36736.00
2023-05-22T10:46:32.171Z,90272.00
2023-05-22T10:47:32.159Z,83712.00
2023-05-22T10:48:32.056Z,34624.00
2023-05-22T10:49:32.046Z,32000.00
2023-05-22T10:50:32.040Z,31808.00
2023-05-22T10:51:32.035Z,32672.00
2023-05-22T10:52:32.018Z,33344.00
2023-05-22T10:53:32.022Z,33984.00
2023-05-22T10:54:31.996Z,35072.00
2023-05-22T10:55:31.981Z,86112.00
2023-05-22T10:56:32.102Z,54304.00
2023-05-22T10:57:31.974Z,158336.00
2023-05-22T10:58:31.967Z,87296.00
2023-05-22T10:59:31.948Z,172000.00
2023-05-22T11:00:31.951Z,71840.00
2023-05-22T11:01:31.951Z,112288.00
2023-05-22T11:02:32.001Z,33120.00
2023-05-22T11:03:31.923Z,32544.00
2023-05-22T11:04:31.938Z,32288.00
2023-05-22T11:05:31.916Z,31936.00
2023-05-22T11:06:31.865Z,31968.00
2023-05-22T11:07:31.861Z,31840.00
2023-05-22T11:08:31.862Z,31808.00
2023-05-22T11:09:31.875Z,31968.00
2023-05-22T11:10:31.842Z,31360.00
2023-05-22T11:11:31.838Z,31104.00
2023-05-22T11:12:31.922Z,31008.00
2023-05-22T11:13:31.801Z,31296.00
2023-05-22T11:14:31.773Z,31008.00
2023-05-22T11:15:31.773Z,30400.00
2023-05-22T11:16:31.764Z,30432.00
2023-05-22T11:17:31.857Z,30464.00
2023-05-22T11:18:31.742Z,30912.00
2023-05-22T11:19:31.791Z,32288.00
2023-05-22T11:20:31.715Z,32448.00
2023-05-22T11:21:31.703Z,32288.00
2023-05-22T11:22:31.718Z,32704.00
2023-05-22T11:23:31.692Z,32928.00
2023-05-22T11:24:31.685Z,33280.00
2023-05-22T11:25:31.661Z,33824.00
2023-05-22T11:26:31.647Z,34848.00
2023-05-22T11:27:31.651Z,36992.00
2023-05-22T11:28:31.744Z,45600.00
2023-05-22T11:29:31.696Z,41856.00
2023-05-22T11:30:31.606Z,41888.00
2023-05-22T11:31:31.646Z,45408.00
2023-05-22T11:32:31.684Z,47648.00
2023-05-22T11:33:31.577Z,45664.00
2023-05-22T11:34:31.577Z,130912.00
2023-05-22T11:35:31.562Z,105344.00
2023-05-22T11:36:31.541Z,137120.00
2023-05-22T11:37:31.534Z,129824.00
2023-05-22T11:38:31.517Z,37536.00
2023-05-22T11:39:31.520Z,39264.00
2023-05-22T11:40:31.495Z,135360.00
2023-05-22T11:41:33.175Z,120576.00
2023-05-22T11:42:31.509Z,39264.00
2023-05-22T11:43:31.504Z,32896.00
2023-05-22T11:44:31.583Z,32608.00
2023-05-22T11:45:31.452Z,33184.00
2023-05-22T11:46:31.491Z,33088.00
2023-05-22T11:47:31.478Z,32768.00
2023-05-22T11:48:31.406Z,32192.00
2023-05-22T11:49:31.405Z,31936.00
2023-05-22T11:50:41.891Z,33056.00
2023-05-22T11:51:32.375Z,39776.00
2023-05-22T11:52:31.383Z,57216.00
2023-05-22T11:53:31.355Z,72128.00
2023-05-22T11:54:31.339Z,46944.00
2023-05-22T11:55:31.339Z,64768.00
2023-05-22T11:56:31.327Z,36704.00
2023-05-22T11:57:31.310Z,144896.00
2023-05-22T11:58:31.302Z,39968.00
2023-05-22T11:59:31.294Z,30624.00
2023-05-22T12:00:31.789Z,32352.00
2023-05-22T12:01:31.262Z,32032.00
2023-05-22T12:02:31.311Z,33280.00
2023-05-22T12:03:31.370Z,34784.00
2023-05-22T12:04:31.238Z,34560.00
2023-05-22T12:05:31.228Z,34176.00
2023-05-22T12:06:31.244Z,33632.00
2023-05-22T12:07:31.196Z,33984.00